Latest Weather Observations for Williamtown

IDN60801

Issued at 10:35 pm EST Saturday 26 July 2014 (issued every 30 minutes, with the page automatically refreshed every 10 minutes)

About weather observations | Map of weather stations | Latest weather observations for NSW | Other Formats
Station Details ID: 061078 Name: WILLIAMTOWN RAAF Lat: -32.79 Lon: 151.84 Height: 9.0 m
Data from the previous 72 hours. | See also: Recent months at Williamtown
Date/Time
EST
Temp
°C
App
Temp
°C
Dew
Point
Rel
Hum
%
Delta-T
°C
Wind Press
QNH
hPa
Press
MSL
hPa
Rain
since 9 am
mm
Dir
 
Spd
km/h
Gust
km/h
Spd
kts
Gust
kts
26/10:30pm 10.3 7.1 9.9 97 0.2 WNW 17 20 9 11 1023.4 - 4.0
26/10:00pm 10.5 6.9 9.9 96 0.3 WNW 19 22 10 12 1023.4 - 4.0
26/09:30pm 10.5 6.9 9.9 96 0.3 WNW 19 20 10 11 1023.4 - 4.0
26/09:00pm 9.7 6.8 9.5 99 0.1 WNW 15 17 8 9 1023.5 1023.6 4.0
26/08:30pm 9.3 6.6 8.9 97 0.2 W 13 15 7 8 1023.5 - 4.0
26/08:00pm 9.8 8.0 9.6 99 0.1 NW 9 11 5 6 1023.3 - 4.0
26/07:30pm 10.1 8.7 9.5 96 0.3 WNW 7 9 4 5 1023.2 - 4.0
26/07:00pm 10.8 9.1 10.0 95 0.4 NW 9 9 5 5 1023.0 - 4.0
26/06:30pm 11.1 9.5 10.3 95 0.4 NNW 9 11 5 6 1022.7 - 4.0
26/06:00pm 12.0 9.4 10.8 92 0.6 NNW 15 20 8 11 1022.3 1022.4 4.0
26/05:30pm 12.6 10.1 10.9 89 0.9 NW 15 17 8 9 1022.2 - 4.0
26/05:00pm 13.5 11.5 11.6 88 1.0 WNW 13 20 7 11 1022.0 - 3.8
26/04:30pm 14.5 12.1 11.5 82 1.6 NW 15 20 8 11 1021.8 - 3.8
26/04:00pm 14.9 13.7 12.9 88 1.1 NNW 11 17 6 9 1021.6 - 3.8
26/03:30pm 13.7 12.7 12.4 92 0.7 NNW 9 13 5 7 1021.5 - 3.8
26/03:00pm 13.9 11.6 11.6 86 1.2 NNW 15 20 8 11 1022.2 1022.3 3.8
26/02:30pm 14.6 12.5 11.0 79 1.9 WNW 13 17 7 9 1021.9 - 3.8
26/02:00pm 15.4 14.1 11.3 76 2.2 NW 9 11 5 6 1021.9 - 3.6
26/01:30pm 16.0 14.4 11.7 75 2.3 W 11 15 6 8 1022.2 - 3.6
26/01:00pm 14.9 13.1 12.1 83 1.5 WNW 13 15 7 8 1022.1 - 3.6
26/12:30pm 14.4 11.8 13.1 92 0.7 WSW 19 22 10 12 1022.8 - 3.6
26/12:00pm 14.3 13.6 13.2 93 0.6 W 9 13 5 7 1023.6 1023.7 3.6
26/11:30am 14.0 13.7 13.3 96 0.4 W 7 11 4 6 1024.1 - 3.6
26/11:00am 14.0 12.8 12.9 93 0.6 NW 11 15 6 8 1024.4 - 3.6
26/10:30am 13.5 13.0 12.8 95 0.4 NW 7 11 4 6 1024.4 - 3.0
26/10:00am 13.2 12.0 12.8 97 0.2 NNE 11 15 6 8 1024.4 - 2.8
26/09:30am 13.3 11.7 12.7 96 0.3 NW 13 17 7 9 1024.8 - 1.4
26/09:00am 13.3 12.5 12.9 97 0.2 NW 9 13 5 7 1024.6 1024.7 8.4
26/08:30am 13.1 13.6 12.7 97 0.2 N 2 7 1 4 1024.2 - 8.0
26/08:00am 13.1 13.2 12.7 97 0.2 NE 4 11 2 6 1024.0 - 8.0
26/07:30am 13.2 14.0 12.6 96 0.3 WNW 0 0 0 0 1023.8 - 8.0
26/07:00am 13.3 11.7 12.9 97 0.2 NW 13 15 7 8 1024.7 - 8.0
26/06:30am 13.6 11.3 12.9 95 0.4 WNW 17 30 9 16 1024.4 - 7.2
26/06:00am 13.7 11.0 12.8 94 0.5 WNW 19 24 10 13 1024.4 1024.5 6.8
26/05:30am 13.8 11.8 12.7 93 0.6 NW 15 22 8 12 1023.6 - 6.4
26/05:00am 13.8 12.2 12.7 93 0.6 NNW 13 17 7 9 1023.2 - 6.2
26/04:30am 14.0 11.6 12.7 92 0.7 N 17 28 9 15 1023.0 - 6.0
26/04:00am 13.9 11.0 12.8 93 0.6 NNW 20 30 11 16 1022.9 - 4.0
26/03:30am 14.3 13.4 12.6 89 0.9 NNW 9 13 5 7 1022.8 - 3.4
26/03:00am 13.9 12.2 12.6 92 0.7 WNW 13 15 7 8 1023.1 1023.2 3.0
26/02:30am 13.8 10.9 12.3 91 0.8 WNW 19 28 10 15 1023.6 - 1.2
26/02:00am 14.1 12.2 11.7 85 1.3 N 13 17 7 9 1023.7 - 1.0
26/01:30am 14.0 12.8 11.6 85 1.3 NNW 9 13 5 7 1023.6 - 0.8
26/01:00am 14.3 13.4 11.3 82 1.6 NNW 7 11 4 6 1023.3 - 0.8
26/12:30am 15.0 13.1 10.6 75 2.3 N 11 13 6 7 1023.1 - 0.8
26/12:00am 15.2 12.9 10.6 74 2.4 N 13 26 7 14 1023.1 1023.2 0.8
 
Date/Time
EST
Temp
°C
App
Temp
°C
Dew
Point
Rel
Hum
%
Delta-T
°C
Wind Press
QNH
hPa
Press
MSL
hPa
Rain
since 9 am
mm
Dir
 
Spd
km/h
Gust
km/h
Spd
kts
Gust
kts
25/11:30pm 14.8 12.7 11.0 78 2.0 NNW 13 19 7 10 1023.5 - 0.8
25/11:00pm 14.4 13.2 11.6 83 1.5 NNW 9 15 5 8 1023.6 - 0.8
25/10:30pm 14.3 12.4 11.7 84 1.4 N 13 17 7 9 1023.4 - 0.8
25/10:00pm 14.0 12.5 11.9 87 1.1 NNW 11 13 6 7 1023.9 - 0.8
25/09:30pm 15.1 12.7 11.3 78 2.0 NNE 15 17 8 9 1023.6 - 0.8
25/09:00pm 14.8 12.2 12.0 83 1.5 NNE 17 24 9 13 1023.9 1024.0 0.8
25/08:30pm 14.7 13.0 12.3 85 1.3 NE 13 19 7 10 1023.9 - 0.8
25/08:00pm 14.5 12.1 12.5 88 1.1 NNE 17 20 9 11 1024.3 - 0.8
25/07:30pm 14.5 12.5 12.7 89 1.0 NNE 15 19 8 10 1024.4 - 0.6
25/07:00pm 14.4 12.7 12.6 89 1.0 N 13 15 7 8 1024.4 - 0.6
25/06:30pm 14.7 13.0 12.3 85 1.3 N 13 20 7 11 1023.9 - 0.4
25/06:00pm 16.2 13.5 10.5 69 3.0 N 15 20 8 11 1023.4 1023.5 0.0
25/05:30pm 16.4 14.1 10.5 68 3.1 NNW 13 19 7 10 1023.1 - 0.0
25/05:00pm 15.9 14.1 10.8 71 2.7 NNW 11 17 6 9 1022.6 - 0.0
25/04:30pm 16.6 14.6 10.1 65 3.4 NNW 11 17 6 9 1022.3 - 0.0
25/04:00pm 16.8 14.4 9.9 64 3.6 W 13 17 7 9 1022.4 - 0.0
25/03:30pm 16.8 14.3 9.7 63 3.7 NW 13 17 7 9 1022.4 - 0.0
25/03:00pm 15.8 14.5 11.3 74 2.4 NW 9 11 5 6 1022.1 1022.2 0.0
25/02:30pm 15.9 14.6 11.4 74 2.4 N 9 11 5 6 1021.4 - 0.0
25/02:00pm 16.3 15.0 11.3 72 2.7 NNE 9 11 5 6 1021.5 - 0.0
25/01:30pm 16.6 15.5 10.6 67 3.2 N 7 9 4 5 1021.8 - 0.0
25/01:00pm 16.7 15.0 10.0 64 3.5 N 9 11 5 6 1022.2 - 0.0
25/12:30pm 16.8 15.4 9.5 62 3.8 WNW 7 9 4 5 1022.5 - 0.0
25/12:00pm 16.1 14.4 10.0 67 3.2 N 9 11 5 6 1023.0 1023.1 0.0
25/11:30am 15.8 13.2 9.2 65 3.4 NNW 13 17 7 9 1023.4 - 0.0
25/11:00am 15.5 13.7 9.3 66 3.2 N 9 13 5 7 1023.5 - 0.0
25/10:30am 15.5 12.0 8.6 63 3.5 WNW 17 19 9 10 1024.0 - 0.0
25/10:00am 15.2 11.8 9.1 67 3.1 WNW 17 26 9 14 1023.8 - 0.0
25/09:30am 11.3 9.1 9.3 87 1.0 NW 11 13 6 7 1023.9 - 0.0
25/09:00am 11.5 8.5 9.1 85 1.2 NW 15 19 8 10 1023.6 1023.7 0.0
25/08:30am 11.8 9.7 9.8 87 1.0 NW 11 17 6 9 1023.0 - 0.0
25/08:00am 9.6 7.6 8.6 93 0.5 NW 9 11 5 6 1022.6 - 0.0
25/07:30am 7.4 4.2 7.0 97 0.2 NW 13 13 7 7 1022.2 - 0.0
25/07:00am 5.7 2.6 5.5 99 0.1 W 11 13 6 7 1021.6 - 0.0
25/06:30am 5.6 3.2 5.1 97 0.2 N 7 11 4 6 1021.1 - 0.0
25/06:00am 5.0 3.8 4.8 99 0.1 CALM 0 0 0 0 1021.1 1021.2 0.0
25/05:30am 5.5 4.4 5.3 99 0.1 CALM 0 0 0 0 1021.0 - 0.0
25/05:11am 5.8 4.8 5.6 99 0.1 CALM 0 0 0 0 1020.9 - 0.0
25/05:00am 5.9 4.8 5.0 94 0.4 CALM 0 0 0 0 1020.8 - 0.0
25/04:50am 6.1 5.1 5.6 97 0.2 CALM 0 0 0 0 1020.8 - 0.0
25/04:30am 6.1 5.1 5.4 95 0.3 CALM 0 0 0 0 1020.7 - 0.0
25/04:00am 7.1 6.2 6.2 94 0.4 CALM 0 0 0 0 1020.6 - 0.0
25/03:30am 6.7 5.9 6.5 99 0.1 CALM 0 0 0 0 1020.5 - 0.0
25/03:00am 6.8 6.0 6.4 97 0.2 CALM 0 0 0 0 1020.7 1020.8 0.0
25/02:30am 7.9 6.9 7.3 96 0.3 N 2 6 1 3 1020.7 - 0.0
25/02:00am 7.9 7.3 7.5 97 0.2 CALM 0 2 0 1 1020.6 - 0.0
25/01:30am 7.2 5.3 6.8 97 0.2 NW 6 9 3 5 1020.7 - 0.0
25/01:00am 7.3 6.6 7.1 99 0.1 CALM 0 0 0 0 1020.5 - 0.0
25/12:30am 8.5 7.6 7.9 96 0.3 W 2 9 1 5 1020.4 - 0.0
25/12:00am 8.5 6.6 7.7 95 0.4 NNW 7 9 4 5 1020.4 1020.5 0.0
 
Date/Time
EST
Temp
°C
App
Temp
°C
Dew
Point
Rel
Hum
%
Delta-T
°C
Wind Press
QNH
hPa
Press
MSL
hPa
Rain
since 9 am
mm
Dir
 
Spd
km/h
Gust
km/h
Spd
kts
Gust
kts
24/11:30pm 8.8 8.3 8.0 95 0.4 CALM 0 0 0 0 1020.6 - 0.0
24/11:00pm 9.4 9.1 8.6 95 0.4 CALM 0 0 0 0 1021.0 - 0.0
24/10:30pm 9.2 7.6 8.2 93 0.5 NNE 6 6 3 3 1021.1 - 0.0
24/10:00pm 10.8 9.5 9.8 93 0.5 NE 7 9 4 5 1021.0 - 0.0
24/09:30pm 11.4 10.2 10.2 92 0.6 NE 7 9 4 5 1021.0 - 0.0
24/09:00pm 11.8 10.8 11.0 95 0.4 NNE 7 7 4 4 1021.1 1021.2 0.0
24/08:30pm 11.9 11.1 11.1 95 0.4 NE 6 7 3 4 1021.2 - 0.0
24/08:00pm 11.9 11.0 10.5 91 0.7 NE 6 7 3 4 1021.0 - 0.0
24/07:30pm 12.0 10.9 10.8 92 0.6 NNE 7 9 4 5 1021.0 - 0.0
24/07:00pm 12.8 12.1 11.5 92 0.7 NNE 6 7 3 4 1020.7 - 0.0
24/06:30pm 14.0 13.2 11.6 85 1.3 ENE 7 9 4 5 1020.4 - 0.0
24/06:00pm 13.6 14.0 11.3 86 1.2 CALM 0 0 0 0 1020.2 1020.3 0.0
24/05:30pm 14.8 13.5 11.4 80 1.8 E 9 9 5 5 1020.0 - 0.0
24/05:00pm 14.8 15.4 12.0 83 1.5 CALM 0 6 0 3 1020.0 - 0.0
24/04:30pm 15.4 15.9 11.7 78 2.0 CALM 0 0 0 0 1020.0 - 0.0
24/04:00pm 15.6 14.6 11.1 74 2.4 NNE 7 9 4 5 1019.9 - 0.0
24/03:30pm 15.8 14.6 10.3 70 2.9 N 7 9 4 5 1020.0 - 0.0
24/03:00pm 15.8 14.5 10.1 69 3.0 N 7 11 4 6 1020.0 1020.1 0.0
24/02:30pm 15.9 14.1 9.5 66 3.3 NW 9 11 5 6 1020.2 - 0.0
24/02:00pm 16.1 14.4 9.8 66 3.3 NNW 9 13 5 7 1020.3 - 0.0
24/01:30pm 15.8 13.7 9.8 67 3.1 WNW 11 15 6 8 1020.6 - 0.0
24/01:00pm 15.0 12.5 9.6 70 2.8 WNW 13 15 7 8 1020.9 - 0.0
24/12:30pm 14.6 12.0 9.3 70 2.7 NW 13 17 7 9 1021.1 - 0.0
24/12:00pm 14.5 12.2 9.0 69 2.8 NNW 11 15 6 8 1021.7 1021.8 0.0
24/11:30am 14.1 11.1 9.2 72 2.5 NNW 15 19 8 10 1022.1 - 0.0
24/11:00am 12.7 9.6 8.9 78 1.9 NW 15 19 8 10 1022.8 - 0.0
24/10:30am 11.8 9.8 8.8 82 1.5 NW 9 17 5 9 1023.0 - 0.0
24/10:00am 11.0 8.1 8.3 83 1.3 NW 13 15 7 8 1023.0 - 0.0
24/09:30am 10.7 8.3 8.7 87 1.0 NW 11 15 6 8 1023.0 - 0.0
24/09:00am 9.3 6.5 8.5 95 0.4 WNW 13 17 7 9 1022.9 1023.0 0.0
24/08:30am 7.8 5.5 7.4 97 0.2 NW 9 11 5 6 1022.6 - 0.0
24/08:00am 7.2 4.7 6.5 95 0.3 WNW 9 13 5 7 1022.1 - 0.0
24/07:30am 4.4 3.1 3.9 97 0.2 CALM 0 0 0 0 1021.8 - 0.0
24/07:19am 4.5 3.2 4.0 97 0.2 CALM 0 0 0 0 1021.7 - 0.0
24/07:00am 4.1 2.7 3.4 95 0.3 CALM 0 0 0 0 1021.5 - 0.0
24/06:30am 4.0 2.6 3.3 95 0.3 CALM 0 0 0 0 1021.4 - 0.0
24/06:00am 5.0 3.8 4.5 97 0.2 CALM 0 0 0 0 1021.2 1021.3 0.0
24/05:30am 4.9 3.7 4.4 97 0.2 CALM 0 0 0 0 1020.9 - 0.0
24/05:00am 4.7 3.4 4.2 97 0.2 CALM 0 0 0 0 1020.7 - 0.0
24/04:30am 4.6 3.4 4.4 99 0.1 CALM 0 0 0 0 1020.7 - 0.0
24/04:00am 4.7 3.4 4.0 95 0.3 CALM 0 0 0 0 1020.8 - 0.0
24/03:30am 4.8 3.6 4.6 99 0.1 CALM 0 0 0 0 1020.8 - 0.0
24/03:00am 5.1 3.9 4.6 97 0.2 CALM 0 0 0 0 1021.2 1021.3 0.0
24/02:30am 5.2 4.0 4.7 97 0.2 CALM 0 0 0 0 1021.3 - 0.0
24/02:00am 5.7 4.6 5.2 97 0.2 CALM 0 0 0 0 1021.3 - 0.0
24/01:30am 6.5 5.5 5.8 95 0.3 CALM 0 0 0 0 1021.7 - 0.0
24/01:00am 6.6 5.7 5.9 95 0.3 CALM 0 0 0 0 1021.9 - 0.0
24/12:30am 6.7 5.9 6.3 97 0.2 CALM 0 0 0 0 1022.3 - 0.0
24/12:00am 7.0 6.2 6.6 97 0.2 CALM 0 0 0 0 1022.4 1022.5 0.0
 
Date/Time
EST
Temp
°C
App
Temp
°C
Dew
Point
Rel
Hum
%
Delta-T
°C
Wind Press
QNH
hPa
Press
MSL
hPa
Rain
since 9 am
mm
Dir
 
Spd
km/h
Gust
km/h
Spd
kts
Gust
kts
23/11:30pm 7.0 6.2 6.3 95 0.3 CALM 0 0 0 0 1022.6 - 0.0
23/11:00pm 7.0 6.2 6.3 95 0.3 CALM 0 0 0 0 1022.7 - 0.0

Other Formats:

Comma delimited format used in spreadsheet applications
http://www.bom.gov.au/fwo/IDN60801/IDN60801.94776.axf

JavaScript Object Notation format (JSON) in row-major order
http://www.bom.gov.au/fwo/IDN60801/IDN60801.94776.json